METAR Data
IDs: Format: Raw Decoded Include TAF

Data at: 0152 UTC 20 Jul 2019

KFLY 200135Z AUTO 14006KT 10SM CLR 30/M01 A3005 RMK AO2 T03001009
KFLY 200115Z AUTO 12009KT 10SM CLR 32/M02 A3005 RMK AO2 T03151019
KFLY 200055Z AUTO 11012G16KT 10SM CLR 33/M02 A3005 RMK AO2 T03251022
KFLY 200035Z AUTO 13012G19KT 10SM CLR 33/M03 A3005 RMK AO2 T03301029
KFLY 200015Z AUTO 12010G16KT 10SM CLR 33/M03 A3005 RMK AO2 T03341030
KFLY 192355Z AUTO 12012G15KT 10SM CLR 34/M03 A3005 RMK AO2 T03371031 10355 20328
KFLY 192335Z AUTO 16012G18KT 10SM CLR 34/M03 A3006 RMK AO2 T03391031
KFLY 192315Z AUTO 15009G14KT 10SM CLR 34/M03 A3006 RMK AO2 T03441031
KFLY 192255Z AUTO 13009G17KT 10SM CLR 35/M03 A3006 RMK AO2 T03491028
KFLY 192235Z AUTO 17008G15KT 100V190 10SM CLR 35/M03 A3007 RMK AO2 T03471027
KFLY 192215Z AUTO 16009G17KT 10SM CLR 35/M03 A3007 RMK AO2 T03501026
KFLY 192155Z AUTO 12012G21KT 10SM CLR 35/M03 A3007 RMK AO2 T03451028
KFLY 192135Z AUTO 12011G17KT 10SM CLR 36/M03 A3007 RMK AO2 T03551026
KFLY 192115Z AUTO 13013G17KT 10SM CLR 35/M03 A3008 RMK AO2 T03451031
KFLY 192055Z AUTO 13011G20KT 090V220 10SM CLR 34/M03 A3009 RMK AO2 T03431033
KFLY 192035Z AUTO 14014G22KT 10SM CLR 35/M03 A3010 RMK AO2 T03471027
KFLY 192015Z AUTO 15013G16KT 10SM CLR 34/M03 A3010 RMK AO2 T03431027
KFLY 191955Z AUTO 10007KT 10SM CLR 35/M02 A3010 RMK AO2 T03471024
KFLY 191935Z AUTO 09006G16KT 10SM CLR 34/M02 A3011 RMK AO2 T03391023
KFLY 191915Z AUTO 11005KT 10SM CLR 34/M02 A3011 RMK AO2 T03411020
KFLY 191855Z AUTO 10009G14KT 10SM CLR 34/M02 A3012 RMK AO2 T03361020
KFLY 191835Z AUTO 07005G16KT 10SM CLR 33/M02 A3013 RMK AO2 T03321021
KFLY 191815Z AUTO 06007G15KT 030V090 10SM CLR 33/M02 A3013 RMK AO2 T03301017
KFLY 191755Z AUTO 06007G16KT 10SM CLR 33/M02 A3013 RMK AO2 T03291021 10331 20207
KFLY 191735Z AUTO 06012G16KT 10SM CLR 33/M03 A3013 RMK AO2 T03291027
KFLY 191715Z AUTO 03005G15KT 10SM CLR 33/M03 A3013 RMK AO2 T03251031
KFLY 191655Z AUTO 06007KT 10SM CLR 33/M03 A3014 RMK AO2 T03271035
KFLY 191635Z AUTO 36007KT 320V020 10SM CLR 32/M03 A3014 RMK AO2 T03191033
KFLY 191615Z AUTO 03007KT 10SM CLR 32/M04 A3014 RMK AO2 T03151043
KFLY 191555Z AUTO 01005KT 10SM CLR 31/M05 A3014 RMK AO2 T03111046
KFLY 191535Z AUTO 34008KT 10SM CLR 31/M04 A3014 RMK AO2 T03051036
KFLY 191515Z AUTO 35006KT 10SM CLR 30/M04 A3014 RMK AO2 T03001043
KFLY 191455Z AUTO 34004KT 10SM CLR 29/M02 A3014 RMK AO2 T02941023
KFLY 191435Z AUTO 33008KT 10SM CLR 29/M02 A3013 RMK AO2 T02851018
KFLY 191415Z AUTO 34006KT 10SM CLR 28/00 A3013 RMK AO2 T02770001
KFLY 191355Z AUTO 33006KT 10SM CLR 26/00 A3012 RMK AO2 T02641003
KFLY 191335Z AUTO 33006KT 10SM CLR 26/M02 A3012 RMK AO2 T02561021
KFLY 191315Z AUTO 33005KT 10SM CLR 24/M02 A3011 RMK AO2 T02441017
KFLY 191255Z AUTO 33006KT 10SM CLR 22/M02 A3011 RMK AO2 T02221019
KFLY 191235Z AUTO 32006KT 10SM CLR 21/M03 A3011 RMK AO2 T02081028
KFLY 191215Z AUTO 34006KT 10SM CLR 21/M06 A3011 RMK AO2 T02121056
KFLY 191155Z AUTO 34006KT 10SM CLR 21/M06 A3010 RMK AO2 T02101060 10222 20171
KFLY 191135Z AUTO 34008G15KT 10SM CLR 21/M06 A3009 RMK AO2 T02141060
KFLY 191115Z AUTO 34008KT 10SM CLR 22/M06 A3009 RMK AO2 T02201060
KFLY 191055Z AUTO 34007G14KT 10SM CLR 22/M05 A3009 RMK AO2 T02211055
KFLY 191035Z AUTO 34008G14KT 10SM CLR 22/M05 A3009 RMK AO2 T02201047
KFLY 191015Z AUTO 34005KT 10SM CLR 22/M03 A3009 RMK AO2 T02201034
KFLY 190955Z AUTO 33006KT 10SM CLR 22/M03 A3008 RMK AO2 T02181027
KFLY 190935Z AUTO 32009KT 10SM CLR 22/M04 A3008 RMK AO2 T02201040
KFLY 190915Z AUTO 32008KT 10SM CLR 22/M02 A3007 RMK AO2 T02151025
KFLY 190855Z AUTO 31008KT 10SM CLR 21/M02 A3007 RMK AO2 T02071017
KFLY 190835Z AUTO 32009G14KT 10SM CLR 20/M02 A3007 RMK AO2 T02031018
KFLY 190815Z AUTO 30012KT 10SM CLR 19/M01 A3008 RMK AO2 T01911014
KFLY 190755Z AUTO 31010KT 290V350 10SM CLR 18/00 A3008 RMK AO2 T01800001
KFLY 190735Z AUTO 29013KT 10SM CLR 17/01 A3009 RMK AO2 T01730007
KFLY 190715Z AUTO 33004KT 10SM CLR 19/01 A3009 RMK AO2 T01920006
KFLY 190655Z AUTO 34005KT 10SM CLR 19/00 A3010 RMK AO2 T01900004 403430150
KFLY 190635Z AUTO 03008KT 10SM CLR 19/01 A3010 RMK AO2 T01860006
KFLY 190615Z AUTO 00000KT 10SM CLR 19/01 A3011 RMK AO2 T01930006
KFLY 190555Z AUTO 28007KT 10SM CLR 21/00 A3011 RMK AO2 T02051001 10328 20204
KFLY 190535Z AUTO 24006KT 10SM CLR 21/M01 A3011 RMK AO2 T02111008
KFLY 190515Z AUTO 21013G17KT 10SM CLR 22/M01 A3011 RMK AO2 T02241014
KFLY 190455Z AUTO 24004KT 10SM CLR 22/M01 A3011 RMK AO2 T02241006
KFLY 190435Z AUTO 27011G16KT 10SM CLR 22/00 A3011 RMK AO2 T02150000
KFLY 190415Z AUTO 23005KT 10SM CLR 22/00 A3011 RMK AO2 T02210000
KFLY 190355Z AUTO 19005KT 10SM CLR 23/00 A3011 RMK AO2 T02281001
KFLY 190335Z AUTO 24004KT 10SM CLR 22/00 A3010 RMK AO2 T02220000
KFLY 190315Z AUTO 00000KT 10SM CLR 23/00 A3009 RMK AO2 T02321002
KFLY 190255Z AUTO 15004KT 10SM CLR 24/M01 A3008 RMK AO2 T02371010
KFLY 190235Z AUTO 15006KT 10SM CLR 24/M02 A3008 RMK AO2 T02441016
KFLY 190215Z AUTO 15004KT 10SM CLR 26/M01 A3007 RMK AO2 T02551015
KFLY 190155Z AUTO 15006KT 10SM CLR 28/M02 A3007 RMK AO2 T02781018
KFLY 190135Z AUTO 13009KT 10SM CLR 30/M02 A3007 RMK AO2 T02971019
KFLY 190115Z AUTO 13012G15KT 10SM CLR 31/M02 A3007 RMK AO2 T03091021
KFLY 190055Z AUTO 13013KT 10SM CLR 32/M03 A3007 RMK AO2 T03151026
KFLY 190035Z AUTO 13012KT 10SM CLR 32/M03 A3007 RMK AO2 T03151033
KFLY 190015Z AUTO 14013G18KT 10SM CLR 32/M03 A3007 RMK AO2 T03191033
KFLY 182355Z AUTO 14012G22KT 10SM CLR 33/M03 A3007 RMK AO2 T03301035 10343 20322
KFLY 182335Z AUTO 12011G19KT 10SM CLR 33/M04 A3007 RMK AO2 T03301039
KFLY 182315Z AUTO 13016G19KT 10SM CLR 34/M04 A3007 RMK AO2 T03361036
KFLY 182255Z AUTO 13014G21KT 10SM CLR 34/M03 A3008 RMK AO2 T03401035
KFLY 182235Z AUTO 13014G21KT 10SM CLR 34/M04 A3008 RMK AO2 T03401041
KFLY 182215Z AUTO 14011G20KT 10SM CLR 34/M04 A3009 RMK AO2 T03401038
KFLY 182155Z AUTO 18009G19KT 10SM CLR 34/M04 A3010 RMK AO2 T03411037
KFLY 182135Z AUTO 15010G16KT 110V190 10SM CLR 34/M03 A3010 RMK AO2 T03381035
KFLY 182115Z AUTO 12010G15KT 110V180 10SM CLR 34/M03 A3011 RMK AO2 T03371032
KFLY 182055Z AUTO 14011G19KT 120V180 10SM CLR 34/M03 A3012 RMK AO2 T03391034
KFLY 182035Z AUTO 18007G20KT 10SM CLR 34/M03 A3012 RMK AO2 T03371035
KFLY 182015Z AUTO 18004KT 10SM CLR 34/M04 A3012 RMK AO2 T03371039
KFLY 181955Z AUTO 20010G19KT 10SM CLR 34/M03 A3013 RMK AO2 T03371035
KFLY 181935Z AUTO 14006G18KT 10SM CLR 33/M04 A3013 RMK AO2 T03301042
KFLY 181915Z AUTO 17012KT 10SM CLR 33/M04 A3014 RMK AO2 T03311045
KFLY 181855Z AUTO 17009KT 10SM CLR 33/M05 A3015 RMK AO2 T03321050
KFLY 181835Z AUTO 09004G14KT 10SM CLR 33/M05 A3015 RMK AO2 T03301049
KFLY 181815Z AUTO 14008G15KT 120V180 10SM CLR 33/M04 A3015 RMK AO2 T03291038
KFLY 181755Z AUTO 35006KT 10SM CLR 32/M04 A3016 RMK AO2 T03211039 10322 20162
KFLY 181735Z AUTO 26005KT 10SM CLR 32/M04 A3017 RMK AO2 T03221036
KFLY 181715Z AUTO 35005KT 300V360 10SM CLR 32/M03 A3017 RMK AO2 T03171032
KFLY 181655Z AUTO 30009G20KT 290V350 10SM CLR 31/M03 A3018 RMK AO2 T03111034
KFLY 181635Z AUTO 34007KT 10SM CLR 31/M02 A3018 RMK AO2 T03061024
KFLY 181615Z AUTO 34006G16KT 300V360 10SM CLR 31/M03 A3018 RMK AO2 T03051029
KFLY 181555Z AUTO 33008KT 10SM CLR 30/M03 A3018 RMK AO2 T02981027
KFLY 181535Z AUTO 34011G14KT 10SM CLR 30/M02 A3018 RMK AO2 T02971023
KFLY 181515Z AUTO 32008KT 290V350 10SM CLR 29/M02 A3018 RMK AO2 T02941023
KFLY 181455Z AUTO 30010G15KT 10SM CLR 29/M02 A3019 RMK AO2 T02861022
KFLY 181435Z AUTO 32010G18KT 10SM CLR 28/M02 A3019 RMK AO2 T02751025
KFLY 181415Z AUTO 32012G20KT 10SM CLR 27/M02 A3018 RMK AO2 T02651023
KFLY 181355Z AUTO 32012G17KT 10SM CLR 25/M03 A3018 RMK AO2 T02501029